Time;durP1;ratioP1;P1;durP2;ratioP2;P2;SDS_P1;SDS_P2;PMS_P1;PMS_P2;Temp;Humidity;BMP_temperature;BMP_pressure;BME280_temperature;BME280_humidity;BME280_pressure;Samples;Min_cycle;Max_cycle;Signal;HPM_P1;HPM_P2
2023/01/18 00:00:51;;;;;;;4.15;1.30;;;0.20;99.90;;;;;;5053372;28;20131;-64
2023/01/18 00:03:17;;;;;;;4.30;1.67;;;0.20;99.90;;;;;;5054170;28;20114;-64
2023/01/18 00:05:43;;;;;;;5.50;1.95;;;0.20;99.90;;;;;;5052622;28;20044;-64
2023/01/18 00:08:10;;;;;;;4.72;1.70;;;0.20;99.90;;;;;;5055159;28;20045;-64
2023/01/18 00:10:36;;;;;;;4.28;1.67;;;0.20;99.90;;;;;;5054168;28;20045;-64
2023/01/18 00:13:02;;;;;;;5.75;1.85;;;0.20;99.90;;;;;;5053966;28;20048;-64
2023/01/18 00:15:29;;;;;;;5.13;1.90;;;0.20;99.90;;;;;;5053818;28;20115;-64
2023/01/18 00:17:54;;;;;;;6.25;1.95;;;0.20;99.90;;;;;;5054252;28;20151;-64
2023/01/18 00:20:22;;;;;;;5.25;1.60;;;0.20;99.90;;;;;;5036221;28;20112;-64
2023/01/18 00:22:49;;;;;;;6.57;1.90;;;0.20;99.90;;;;;;5052963;28;20040;-64
2023/01/18 00:25:15;;;;;;;4.10;1.90;;;0.20;99.90;;;;;;5054559;28;20060;-64
2023/01/18 00:27:53;;;;;;;4.95;1.90;;;0.20;99.90;;;;;;5052070;28;20040;-64
2023/01/18 00:30:25;;;;;;;11.93;2.55;;;0.20;99.90;;;;;;5053317;28;20056;-64
2023/01/18 00:32:56;;;;;;;5.55;2.25;;;0.30;99.90;;;;;;5054185;28;20389;-64
2023/01/18 00:35:22;;;;;;;5.03;1.90;;;0.30;99.90;;;;;;5052813;28;20036;-64
2023/01/18 00:37:50;;;;;;;6.03;1.90;;;0.30;99.90;;;;;;5069399;28;20493;-64
2023/01/18 00:40:16;;;;;;;6.38;2.40;;;0.30;99.90;;;;;;5053530;28;20394;-64
2023/01/18 00:45:26;;;;;;;7.30;1.95;;;0.30;99.90;;;;;;5053171;28;20056;-64
2023/01/18 00:47:52;;;;;;;6.80;2.53;;;0.30;99.90;;;;;;5052116;28;20053;-64
2023/01/18 00:50:19;;;;;;;6.72;2.47;;;0.40;99.90;;;;;;5054558;28;20528;-64
2023/01/18 00:52:46;;;;;;;5.93;2.90;;;0.40;99.90;;;;;;5053538;28;20045;-64
2023/01/18 00:55:13;;;;;;;7.68;2.13;;;0.30;99.90;;;;;;5052135;28;20044;-64
2023/01/18 00:57:39;;;;;;;5.28;1.95;;;0.40;99.90;;;;;;5052358;28;20099;-64
2023/01/18 01:00:10;;;;;;;5.68;2.00;;;0.40;99.90;;;;;;5052207;28;20036;-64
2023/01/18 01:02:39;;;;;;;5.10;2.00;;;0.40;99.90;;;;;;5053414;28;20131;-64
2023/01/18 01:07:50;;;;;;;5.87;1.80;;;0.40;99.90;;;;;;5052033;28;20504;-64
2023/01/18 01:10:15;;;;;;;7.07;2.45;;;0.40;99.90;;;;;;5053376;28;20272;-64
2023/01/18 01:26:33;;;;;;;5.05;1.90;;;0.30;99.90;;;;;;5053514;28;20083;-64
2023/01/18 01:28:59;;;;;;;4.70;1.90;;;0.30;99.90;;;;;;5053221;28;20127;-64
2023/01/18 01:31:24;;;;;;;6.88;1.70;;;0.30;99.90;;;;;;5051517;28;20049;-64
2023/01/18 01:33:51;;;;;;;8.15;2.38;;;0.30;99.90;;;;;;5051733;28;20045;-64
2023/01/18 01:36:19;;;;;;;6.18;2.10;;;0.30;99.90;;;;;;5053477;28;20114;-64
2023/01/18 01:38:45;;;;;;;5.15;2.03;;;0.30;99.90;;;;;;5052062;28;20029;-64
2023/01/18 01:41:19;;;;;;;4.78;2.05;;;0.20;99.90;;;;;;5052310;28;20041;-64
2023/01/18 01:43:47;;;;;;;5.93;2.13;;;0.20;99.90;;;;;;5035166;28;20073;-64
2023/01/18 01:46:29;;;;;;;6.97;2.50;;;0.20;99.90;;;;;;5052449;28;20044;-64
2023/01/18 01:49:04;;;;;;;5.57;2.10;;;0.20;99.90;;;;;;5052732;28;20044;-64
2023/01/18 01:51:31;;;;;;;5.07;1.67;;;0.20;99.90;;;;;;5052009;28;20045;-64
2023/01/18 01:54:01;;;;;;;7.65;1.90;;;0.20;99.90;;;;;;5052702;28;20056;-64
2023/01/18 01:56:28;;;;;;;5.68;2.10;;;0.20;99.90;;;;;;5053230;28;20045;-64
2023/01/18 01:58:57;;;;;;;4.68;1.90;;;0.20;99.90;;;;;;5051744;28;20044;-64
2023/01/18 02:01:23;;;;;;;4.90;2.00;;;0.10;99.90;;;;;;5051869;28;20068;-64
2023/01/18 02:03:49;;;;;;;4.00;1.85;;;0.10;99.90;;;;;;5052462;28;20048;-65
2023/01/18 02:06:30;;;;;;;5.40;1.83;;;0.10;99.90;;;;;;5051793;28;20503;-64
2023/01/18 02:09:00;;;;;;;7.07;1.77;;;0.20;99.90;;;;;;5051022;28;20041;-64
2023/01/18 02:11:26;;;;;;;5.03;1.90;;;0.10;99.90;;;;;;5052816;28;20052;-65
2023/01/18 02:13:54;;;;;;;4.63;1.77;;;0.20;99.90;;;;;;5067069;28;20041;-64
2023/01/18 02:16:50;;;;;;;8.93;1.85;;;0.10;99.90;;;;;;5051519;28;20041;-65
2023/01/18 02:19:36;;;;;;;5.53;1.70;;;0.20;99.90;;;;;;5051970;28;20033;-64
2023/01/18 02:22:13;;;;;;;4.10;1.73;;;0.20;99.90;;;;;;5051144;28;20045;-64
2023/01/18 02:24:51;;;;;;;5.50;1.65;;;0.20;99.90;;;;;;5051788;28;20069;-65
2023/01/18 02:27:47;;;;;;;7.82;2.05;;;0.20;99.90;;;;;;5033902;28;20045;-64
2023/01/18 02:30:46;;;;;;;4.70;1.67;;;0.20;99.90;;;;;;5051356;28;20060;-65
2023/01/18 02:33:15;;;;;;;5.97;2.45;;;0.20;99.90;;;;;;5030714;28;20049;-65
2023/01/18 02:35:49;;;;;;;4.47;1.60;;;0.20;99.90;;;;;;5051817;28;20094;-65
2023/01/18 02:38:20;;;;;;;5.05;1.98;;;0.20;99.90;;;;;;5052534;28;20460;-65
2023/01/18 02:41:04;;;;;;;4.10;1.63;;;0.20;99.90;;;;;;5049765;28;20037;-65
2023/01/18 02:46:30;;;;;;;5.75;1.67;;;0.20;99.90;;;;;;5052363;28;20478;-65
2023/01/18 02:49:06;;;;;;;4.82;1.80;;;0.30;99.90;;;;;;5049489;28;20048;-65
2023/01/18 02:51:35;;;;;;;4.63;1.67;;;0.30;99.90;;;;;;5052266;28;20049;-65
2023/01/18 02:54:02;;;;;;;2.90;1.38;;;0.20;99.90;;;;;;5051530;28;20033;-65
2023/01/18 02:56:40;;;;;;;4.10;1.77;;;0.20;99.90;;;;;;5050415;28;20478;-65
2023/01/18 02:59:34;;;;;;;4.05;1.65;;;0.20;99.90;;;;;;5052132;28;20528;-65
2023/01/18 03:02:23;;;;;;;4.40;1.70;;;0.20;99.90;;;;;;5048096;28;20061;-65
2023/01/18 03:04:53;;;;;;;4.15;1.70;;;0.20;99.90;;;;;;5050418;28;20087;-65
2023/01/18 03:07:23;;;;;;;5.13;2.13;;;0.20;99.90;;;;;;5051085;28;20082;-65
2023/01/18 03:09:49;;;;;;;5.50;1.85;;;0.20;99.90;;;;;;5049547;28;20079;-65
2023/01/18 03:12:45;;;;;;;4.72;1.88;;;0.10;99.90;;;;;;5050866;28;20044;-65
2023/01/18 03:15:16;;;;;;;6.25;2.13;;;0.20;99.90;;;;;;5052229;28;20447;-65
2023/01/18 03:17:59;;;;;;;6.95;1.83;;;0.10;99.90;;;;;;5051309;28;20048;-65
2023/01/18 03:20:29;;;;;;;5.47;1.95;;;0.10;99.90;;;;;;5034558;28;20496;-65
2023/01/18 03:25:49;;;;;;;5.15;2.28;;;0.10;99.90;;;;;;5055141;28;20067;-65
2023/01/18 03:34:08;;;;;;;4.47;1.42;;;0.20;99.90;;;;;;5053817;28;20083;-65
2023/01/18 03:36:43;;;;;;;4.93;2.35;;;0.10;99.90;;;;;;5055133;28;20045;-65
2023/01/18 03:39:19;;;;;;;5.43;2.08;;;0.20;99.90;;;;;;5054505;28;20045;-65
2023/01/18 03:41:50;;;;;;;4.75;1.95;;;0.20;99.90;;;;;;5053805;28;20036;-65
2023/01/18 03:44:22;;;;;;;9.65;2.35;;;0.20;99.90;;;;;;5053485;28;20044;-65
2023/01/18 03:46:48;;;;;;;4.85;2.08;;;0.20;99.90;;;;;;5053608;28;20044;-65
2023/01/18 03:49:15;;;;;;;6.80;2.08;;;0.20;99.90;;;;;;5071096;28;20049;-65
2023/01/18 03:51:46;;;;;;;6.30;2.38;;;0.20;99.90;;;;;;5052794;28;20055;-65
2023/01/18 03:54:36;;;;;;;5.85;2.60;;;0.30;99.90;;;;;;5054180;28;20041;-65
2023/01/18 03:57:18;;;;;;;7.80;2.08;;;0.30;99.90;;;;;;5053810;28;20508;-65
2023/01/18 03:59:45;;;;;;;4.03;1.88;;;0.30;99.90;;;;;;5052939;28;20076;-65
2023/01/18 04:02:11;;;;;;;5.63;2.22;;;0.30;99.90;;;;;;5055110;28;20044;-65
2023/01/18 04:04:36;;;;;;;4.70;2.05;;;0.30;99.90;;;;;;5053137;28;20040;-65
2023/01/18 04:07:02;;;;;;;6.53;2.83;;;0.30;99.90;;;;;;5054178;28;20045;-65
2023/01/18 04:09:28;;;;;;;7.47;2.35;;;0.20;99.90;;;;;;5037397;28;20394;-65
2023/01/18 04:11:54;;;;;;;5.53;2.35;;;0.30;99.90;;;;;;5069130;28;20037;-65
2023/01/18 04:14:20;;;;;;;7.22;2.85;;;0.20;99.90;;;;;;5070505;28;20041;-65
2023/01/18 04:16:45;;;;;;;7.35;2.80;;;0.30;99.90;;;;;;5053065;28;20045;-65
2023/01/18 04:19:11;;;;;;;8.70;3.03;;;0.20;99.90;;;;;;5036276;28;20029;-65
2023/01/18 04:21:37;;;;;;;7.97;2.75;;;0.30;99.90;;;;;;5054479;28;20033;-65
2023/01/18 04:24:04;;;;;;;6.30;2.78;;;0.20;99.90;;;;;;5053166;28;20041;-65
2023/01/18 04:26:30;;;;;;;7.50;3.28;;;0.30;99.90;;;;;;5036272;28;20490;-65
2023/01/18 04:28:55;;;;;;;7.70;3.30;;;0.20;99.90;;;;;;5052941;28;20091;-65
2023/01/18 04:31:21;;;;;;;7.47;2.70;;;0.30;99.90;;;;;;5054587;28;20476;-65
2023/01/18 04:33:50;;;;;;;7.82;2.75;;;0.30;99.90;;;;;;5051003;28;20565;-65
2023/01/18 04:36:20;;;;;;;7.40;3.28;;;0.30;99.90;;;;;;5054503;28;20045;-65
2023/01/18 04:38:46;;;;;;;6.75;3.03;;;0.30;99.90;;;;;;5052958;28;20041;-65
2023/01/18 04:41:11;;;;;;;9.15;3.20;;;0.30;99.90;;;;;;5052688;28;20036;-65
2023/01/18 04:43:37;;;;;;;8.50;3.63;;;0.30;99.90;;;;;;5054264;28;20495;-65
2023/01/18 04:46:03;;;;;;;8.73;3.33;;;0.30;99.90;;;;;;5052864;28;20099;-65
2023/01/18 04:48:28;;;;;;;8.77;3.42;;;0.30;99.90;;;;;;5052323;28;20098;-65
2023/01/18 04:50:54;;;;;;;8.65;3.50;;;0.30;99.90;;;;;;5069080;28;20045;-65
2023/01/18 04:53:21;;;;;;;9.38;4.07;;;0.30;99.90;;;;;;5054367;28;20040;-65
2023/01/18 04:55:46;;;;;;;8.25;3.88;;;0.30;99.90;;;;;;5035133;28;20037;-65
2023/01/18 04:58:12;;;;;;;12.88;5.28;;;0.30;99.90;;;;;;5052943;28;20056;-65
2023/01/18 05:00:40;;;;;;;10.80;6.63;;;0.30;99.90;;;;;;5052559;28;20032;-65
2023/01/18 05:03:08;;;;;;;11.50;6.35;;;0.30;99.90;;;;;;5053347;28;20037;-65
2023/01/18 05:05:34;;;;;;;10.18;4.78;;;0.30;99.90;;;;;;5053104;28;20044;-66
2023/01/18 05:08:00;;;;;;;9.85;4.20;;;0.30;99.90;;;;;;5068092;28;20103;-65
2023/01/18 05:10:26;;;;;;;10.45;4.40;;;0.30;99.90;;;;;;5054067;28;20068;-65
2023/01/18 05:12:51;;;;;;;9.30;4.00;;;0.40;99.90;;;;;;5052012;28;20175;-65
2023/01/18 05:15:17;;;;;;;7.32;3.92;;;0.40;99.90;;;;;;5035441;28;20041;-65
2023/01/18 05:17:43;;;;;;;10.70;3.85;;;0.40;99.90;;;;;;5053105;28;20123;-65
2023/01/18 05:20:11;;;;;;;8.77;4.15;;;0.40;99.90;;;;;;5052645;28;20048;-65
2023/01/18 05:22:37;;;;;;;8.02;4.50;;;0.40;99.90;;;;;;5052801;28;20045;-65
2023/01/18 05:25:04;;;;;;;8.88;4.65;;;0.40;99.90;;;;;;5053366;28;20071;-65
2023/01/18 05:27:29;;;;;;;7.93;3.78;;;0.40;99.90;;;;;;5053635;28;20033;-66
2023/01/18 05:29:55;;;;;;;10.27;4.53;;;0.40;99.90;;;;;;5067690;28;20382;-65
2023/01/18 05:32:21;;;;;;;9.77;4.70;;;0.30;99.90;;;;;;5052073;28;20048;-65
2023/01/18 05:34:46;;;;;;;8.65;4.80;;;0.30;99.90;;;;;;5052027;28;20108;-66
2023/01/18 05:37:12;;;;;;;8.23;4.38;;;0.30;99.90;;;;;;5051722;28;20067;-66
2023/01/18 05:39:38;;;;;;;9.07;4.57;;;0.30;99.90;;;;;;5051947;28;20033;-65
2023/01/18 05:42:04;;;;;;;8.95;5.03;;;0.30;99.90;;;;;;5052141;28;20041;-65
2023/01/18 05:44:30;;;;;;;9.85;4.68;;;0.30;99.90;;;;;;5052381;28;20049;-66
2023/01/18 05:46:57;;;;;;;7.35;4.10;;;0.30;99.90;;;;;;5051134;28;20041;-65
2023/01/18 05:49:23;;;;;;;11.38;4.72;;;0.30;99.90;;;;;;5052269;28;20045;-66
2023/01/18 05:51:49;;;;;;;8.55;4.70;;;0.30;99.90;;;;;;5067160;28;20183;-65
2023/01/18 05:54:15;;;;;;;6.80;4.05;;;0.30;99.90;;;;;;5035285;28;20056;-65
2023/01/18 05:56:41;;;;;;;8.48;4.40;;;0.30;99.90;;;;;;5052371;28;20041;-66
2023/01/18 05:59:07;;;;;;;9.18;4.20;;;0.30;99.90;;;;;;5051296;28;20060;-66
2023/01/18 06:01:33;;;;;;;8.00;4.13;;;0.30;99.90;;;;;;5068248;28;20068;-66
2023/01/18 06:03:59;;;;;;;9.13;4.45;;;0.30;99.90;;;;;;5051087;28;20128;-66
2023/01/18 06:06:24;;;;;;;7.88;4.47;;;0.30;99.90;;;;;;5052266;28;20115;-66
2023/01/18 06:08:50;;;;;;;9.48;4.43;;;0.30;99.90;;;;;;5051111;28;20055;-66
2023/01/18 06:11:16;;;;;;;14.98;5.25;;;0.30;99.90;;;;;;5050697;28;20033;-66
2023/01/18 06:13:41;;;;;;;12.88;5.28;;;0.30;99.90;;;;;;5050926;28;20091;-66
2023/01/18 06:16:07;;;;;;;10.88;3.92;;;0.30;99.90;;;;;;5051350;28;20124;-66
2023/01/18 06:18:33;;;;;;;10.20;3.83;;;0.30;99.90;;;;;;5050699;28;20076;-66
2023/01/18 06:21:01;;;;;;;8.50;3.42;;;0.30;99.90;;;;;;5034247;28;20076;-66
2023/01/18 06:23:28;;;;;;;8.45;3.78;;;0.30;99.90;;;;;;5051430;28;20127;-66
2023/01/18 06:25:54;;;;;;;7.75;3.47;;;0.40;99.90;;;;;;5049598;28;20131;-66
2023/01/18 06:28:21;;;;;;;7.03;2.97;;;0.40;99.90;;;;;;5034569;28;20561;-66
2023/01/18 06:30:50;;;;;;;9.52;4.25;;;0.40;99.90;;;;;;5067221;28;20548;-66
2023/01/18 06:33:16;;;;;;;8.60;3.80;;;0.40;99.90;;;;;;5050561;28;20049;-68
2023/01/18 06:35:42;;;;;;;9.65;3.65;;;0.40;99.90;;;;;;5050563;28;20063;-66
2023/01/18 06:38:09;;;;;;;9.50;4.30;;;0.40;99.90;;;;;;5034605;28;20041;-66
2023/01/18 06:40:35;;;;;;;12.77;4.38;;;0.50;99.90;;;;;;5033659;28;20040;-66
2023/01/18 06:43:01;;;;;;;8.95;4.38;;;0.40;99.90;;;;;;5051571;28;20492;-66
2023/01/18 06:45:28;;;;;;;8.80;3.80;;;0.40;99.90;;;;;;5051069;28;20045;-66
2023/01/18 06:47:54;;;;;;;8.35;3.28;;;0.40;99.90;;;;;;5051157;28;20037;-66
2023/01/18 06:50:20;;;;;;;10.77;4.18;;;0.40;99.90;;;;;;5051230;28;20198;-66
2023/01/18 06:52:45;;;;;;;7.30;3.55;;;0.40;99.90;;;;;;5050293;28;20462;-66
2023/01/18 06:55:12;;;;;;;8.45;4.05;;;0.40;99.90;;;;;;5050172;28;20128;-66
2023/01/18 06:57:38;;;;;;;7.82;4.35;;;0.40;99.90;;;;;;5051066;28;20044;-66
2023/01/18 07:00:05;;;;;;;10.20;4.20;;;0.40;99.90;;;;;;5051108;28;20041;-66
2023/01/18 07:02:35;;;;;;;9.57;4.13;;;0.40;99.90;;;;;;5050228;28;20044;-66
2023/01/18 07:05:01;;;;;;;9.40;4.35;;;0.30;99.90;;;;;;5050726;28;20188;-66
2023/01/18 07:07:27;;;;;;;7.85;3.83;;;0.30;99.90;;;;;;5066959;28;20069;-66
2023/01/18 07:09:53;;;;;;;7.80;3.47;;;0.30;99.90;;;;;;5051534;28;20045;-66
2023/01/18 07:12:19;;;;;;;8.10;4.07;;;0.30;99.90;;;;;;5050651;28;20047;-66
2023/01/18 07:14:45;;;;;;;9.95;3.97;;;0.30;99.90;;;;;;5050627;28;20048;-66
2023/01/18 07:17:11;;;;;;;8.68;3.70;;;0.30;99.90;;;;;;5050761;28;20052;-66
2023/01/18 07:19:37;;;;;;;12.20;4.95;;;0.30;99.90;;;;;;5050499;28;20041;-68
2023/01/18 07:22:03;;;;;;;8.27;3.67;;;0.30;99.90;;;;;;5049635;28;20049;-66
2023/01/18 07:24:29;;;;;;;9.45;4.28;;;0.30;99.90;;;;;;5050702;28;20053;-66
2023/01/18 07:26:54;;;;;;;8.50;4.30;;;0.30;99.90;;;;;;5033349;28;20553;-66
2023/01/18 07:29:21;;;;;;;8.05;4.40;;;0.20;99.90;;;;;;5033404;28;20060;-66
2023/01/18 07:31:46;;;;;;;8.63;4.35;;;0.20;99.90;;;;;;5050034;28;20041;-66
2023/01/18 07:34:12;;;;;;;8.95;4.50;;;0.20;99.90;;;;;;5051895;28;20037;-66
2023/01/18 07:36:40;;;;;;;9.98;4.97;;;0.10;99.90;;;;;;5049602;28;20041;-66
2023/01/18 07:39:07;;;;;;;10.52;4.95;;;0.10;99.90;;;;;;5050663;28;20115;-66
2023/01/18 07:41:33;;;;;;;14.27;5.60;;;0.00;99.90;;;;;;5050435;28;20505;-66
2023/01/18 07:43:59;;;;;;;11.18;5.30;;;0.00;99.90;;;;;;5050554;28;20037;-67
2023/01/18 07:46:25;;;;;;;10.60;5.55;;;0.00;99.90;;;;;;5051794;28;20041;-66
2023/01/18 07:48:51;;;;;;;10.85;6.18;;;0.00;99.90;;;;;;5049934;28;20049;-66
2023/01/18 07:51:18;;;;;;;10.50;6.57;;;0.00;99.90;;;;;;5051068;28;20079;-67
2023/01/18 07:53:44;;;;;;;13.07;6.22;;;0.10;99.90;;;;;;5049792;28;20052;-68
2023/01/18 07:56:13;;;;;;;12.32;6.20;;;0.10;99.90;;;;;;5050635;28;20478;-67
2023/01/18 07:58:39;;;;;;;10.43;5.50;;;0.10;99.90;;;;;;5047657;28;20068;-67
2023/01/18 08:01:08;;;;;;;11.98;5.90;;;0.10;99.90;;;;;;5050678;28;20474;-67
2023/01/18 08:03:35;;;;;;;10.52;5.45;;;0.20;99.90;;;;;;5050088;28;20482;-67
2023/01/18 08:06:02;;;;;;;10.15;5.97;;;0.20;99.90;;;;;;5049103;28;20044;-67
2023/01/18 08:08:28;;;;;;;11.25;5.63;;;0.30;99.90;;;;;;5050648;28;20474;-67
2023/01/18 08:10:55;;;;;;;10.82;5.85;;;0.30;99.90;;;;;;5052407;28;20039;-67
2023/01/18 08:13:22;;;;;;;10.65;5.65;;;0.30;99.90;;;;;;5055437;28;20041;-67
2023/01/18 08:15:48;;;;;;;9.48;5.25;;;0.40;99.90;;;;;;5038285;28;20044;-67
2023/01/18 08:18:13;;;;;;;10.80;5.63;;;0.40;99.90;;;;;;5051582;28;20037;-67
2023/01/18 08:20:47;;;;;;;9.85;5.57;;;0.40;99.90;;;;;;5050198;28;20052;-67
2023/01/18 08:23:14;;;;;;;13.25;6.50;;;0.50;99.90;;;;;;5051474;28;20427;-67
2023/01/18 08:25:39;;;;;;;12.48;6.15;;;0.50;99.90;;;;;;5050697;28;20147;-67
2023/01/18 08:28:06;;;;;;;12.02;6.07;;;0.50;99.90;;;;;;5052436;28;20124;-67
2023/01/18 08:30:35;;;;;;;10.07;6.00;;;0.60;99.90;;;;;;5051127;28;20055;-67
2023/01/18 08:33:01;;;;;;;11.10;5.82;;;0.60;99.90;;;;;;5049492;28;20514;-68
2023/01/18 08:35:28;;;;;;;13.10;5.82;;;0.60;99.90;;;;;;5050882;28;20124;-67
2023/01/18 08:37:54;;;;;;;10.30;5.07;;;0.60;99.90;;;;;;5051535;28;20045;-67
2023/01/18 08:40:22;;;;;;;11.80;5.43;;;0.60;99.90;;;;;;5034005;28;20037;-67
2023/01/18 08:42:48;;;;;;;10.02;5.30;;;0.60;99.90;;;;;;5050090;28;20504;-68
2023/01/18 08:45:15;;;;;;;8.85;4.85;;;0.60;99.90;;;;;;5050713;28;20041;-67
2023/01/18 08:47:41;;;;;;;8.85;5.15;;;0.70;99.90;;;;;;5050507;28;20090;-67
2023/01/18 08:50:08;;;;;;;11.27;6.30;;;0.70;99.90;;;;;;5050200;28;20186;-68
2023/01/18 08:52:34;;;;;;;12.45;6.18;;;0.80;99.90;;;;;;5048286;28;20049;-68
2023/01/18 08:55:02;;;;;;;9.75;5.40;;;0.80;99.90;;;;;;5049225;28;20527;-67
2023/01/18 08:57:27;;;;;;;7.85;4.75;;;0.90;99.90;;;;;;5050535;28;20628;-68
2023/01/18 08:59:56;;;;;;;11.30;5.63;;;0.90;99.90;;;;;;5051384;28;20183;-67
2023/01/18 09:02:23;;;;;;;10.35;4.72;;;0.90;99.90;;;;;;5051182;28;20048;-67
2023/01/18 09:04:50;;;;;;;10.13;4.80;;;1.00;99.90;;;;;;5049335;28;20040;-67
2023/01/18 09:07:16;;;;;;;8.57;5.40;;;1.00;99.90;;;;;;5049327;28;20048;-67
2023/01/18 09:09:43;;;;;;;11.27;6.03;;;1.10;99.90;;;;;;5050717;28;20052;-68
2023/01/18 09:12:10;;;;;;;12.77;5.10;;;1.20;99.90;;;;;;5033029;28;20048;-68
2023/01/18 09:14:36;;;;;;;10.30;4.65;;;1.20;99.90;;;;;;5047642;28;20037;-67
2023/01/18 09:17:02;;;;;;;10.80;5.28;;;1.20;99.90;;;;;;5048906;28;20119;-67
2023/01/18 09:19:28;;;;;;;9.00;4.97;;;1.30;99.90;;;;;;5049633;28;20072;-67
2023/01/18 09:21:53;;;;;;;11.25;4.68;;;1.40;99.90;;;;;;5048237;28;20524;-67
2023/01/18 09:24:19;;;;;;;10.18;5.30;;;1.40;99.90;;;;;;5047773;28;20053;-67
2023/01/18 09:26:49;;;;;;;8.82;4.65;;;1.40;99.90;;;;;;5029269;28;20045;-67
2023/01/18 09:29:15;;;;;;;8.10;4.53;;;1.50;99.90;;;;;;5035616;28;20052;-66
2023/01/18 09:31:41;;;;;;;10.25;5.22;;;1.60;99.90;;;;;;5045307;28;20394;-67
2023/01/18 09:34:06;;;;;;;10.80;5.18;;;1.60;99.90;;;;;;5038002;28;20041;-69
2023/01/18 09:36:33;;;;;;;8.50;4.88;;;1.60;99.90;;;;;;5037663;28;20098;-68
2023/01/18 09:39:00;;;;;;;10.77;4.70;;;1.70;99.90;;;;;;5048718;28;20529;-67
2023/01/18 09:41:46;;;;;;;10.63;5.20;;;1.80;99.90;;;;;;5049219;28;20446;-67
2023/01/18 09:44:29;;;;;;;10.07;4.60;;;1.80;99.90;;;;;;5049953;28;20079;-67
2023/01/18 09:47:05;;;;;;;9.27;4.97;;;1.90;99.90;;;;;;5048184;28;20037;-67
2023/01/18 09:49:35;;;;;;;;;;;1.90;99.90;;;;;;5032435;28;20783;-67
2023/01/18 09:52:54;;;;;;;10.68;4.68;;;1.90;99.90;;;;;;5049424;28;19916;-67
2023/01/18 09:55:27;;;;;;;9.35;4.43;;;2.00;99.90;;;;;;5006914;28;20049;-67
2023/01/18 09:58:14;;;;;;;8.20;4.72;;;2.00;99.90;;;;;;5047762;28;20076;-67
2023/01/18 10:00:43;;;;;;;8.48;5.03;;;2.00;99.90;;;;;;5047868;28;20068;-67
2023/01/18 10:03:17;;;;;;;10.02;4.10;;;2.00;99.90;;;;;;5047885;28;20114;-67
2023/01/18 10:06:07;;;;;;;10.35;4.13;;;2.10;99.90;;;;;;5060409;28;20065;-66
2023/01/18 10:08:44;;;;;;;8.10;4.75;;;2.20;99.90;;;;;;5030605;28;20080;-66
2023/01/18 10:11:20;;;;;;;8.07;4.35;;;2.30;99.90;;;;;;5030719;28;20387;-69
2023/01/18 10:13:51;;;;;;;8.00;4.43;;;2.40;99.90;;;;;;5043964;28;20045;-69
2023/01/18 10:16:19;;;;;;;8.60;4.55;;;2.40;99.90;;;;;;5050085;28;20494;-69
2023/01/18 10:18:47;;;;;;;9.73;5.03;;;2.50;99.90;;;;;;5046891;28;20084;-69
2023/01/18 10:21:31;;;;;;;10.52;4.40;;;2.50;99.90;;;;;;5046494;28;20033;-68
2023/01/18 10:24:04;;;;;;;8.90;4.88;;;2.60;99.90;;;;;;5048765;28;20036;-66
2023/01/18 10:26:31;;;;;;;8.50;4.28;;;2.70;99.90;;;;;;5047760;28;20049;-67
2023/01/18 10:29:02;;;;;;;8.98;4.40;;;2.70;99.90;;;;;;5047667;28;20041;-67
2023/01/18 10:31:54;;;;;;;8.63;5.07;;;2.80;99.90;;;;;;5047341;28;20037;-67
2023/01/18 10:34:22;;;;;;;9.82;5.10;;;2.80;99.90;;;;;;5048596;28;20049;-68
2023/01/18 10:37:04;;;;;;;10.98;4.97;;;2.80;99.90;;;;;;5048854;28;20166;-67
2023/01/18 10:39:46;;;;;;;13.60;4.57;;;2.90;99.90;;;;;;5031414;28;20056;-68
2023/01/18 10:42:43;;;;;;;7.07;4.07;;;2.90;99.90;;;;;;5031559;28;20076;-68
2023/01/18 10:45:31;;;;;;;9.88;5.43;;;3.00;99.90;;;;;;5045963;28;20057;-68
2023/01/18 10:48:12;;;;;;;8.45;4.65;;;3.00;99.90;;;;;;5051429;28;20068;-69
2023/01/18 10:50:43;;;;;;;7.60;4.50;;;3.00;99.90;;;;;;5050543;28;20037;-69
2023/01/18 10:53:30;;;;;;;12.52;4.60;;;3.00;99.90;;;;;;5049893;28;20041;-68
2023/01/18 10:56:03;;;;;;;9.93;4.82;;;3.00;99.90;;;;;;5033886;28;20082;-68
2023/01/18 10:58:43;;;;;;;9.55;4.63;;;3.00;99.90;;;;;;5052205;28;20520;-68
2023/01/18 11:01:21;;;;;;;7.88;4.10;;;3.10;99.90;;;;;;5051000;28;20044;-67
2023/01/18 11:03:51;;;;;;;8.90;4.68;;;3.10;99.90;;;;;;5050914;28;20080;-68
2023/01/18 11:06:19;;;;;;;7.45;4.28;;;3.20;99.90;;;;;;5050148;28;20076;-68
2023/01/18 11:08:46;;;;;;;7.57;4.07;;;3.20;99.90;;;;;;5032698;28;20478;-68
2023/01/18 11:11:17;;;;;;;10.15;4.60;;;3.20;99.90;;;;;;5050850;28;20076;-68
2023/01/18 11:13:48;;;;;;;8.13;4.60;;;3.30;99.90;;;;;;5049641;28;20131;-68
2023/01/18 11:16:24;;;;;;;9.02;4.40;;;3.30;99.90;;;;;;5052008;28;20033;-68
2023/01/18 11:19:14;;;;;;;9.38;4.43;;;3.30;99.90;;;;;;5050368;28;20505;-69
2023/01/18 11:21:40;;;;;;;9.38;4.97;;;3.30;99.90;;;;;;5049236;28;20112;-68
2023/01/18 11:24:11;;;;;;;6.70;3.83;;;3.30;99.90;;;;;;5049987;28;20129;-68
2023/01/18 11:26:51;;;;;;;7.70;4.22;;;3.30;99.90;;;;;;5050936;28;20071;-68
2023/01/18 11:29:17;;;;;;;8.18;4.15;;;3.40;99.90;;;;;;5051650;28;20486;-69
2023/01/18 11:31:46;;;;;;;10.77;4.68;;;3.50;99.90;;;;;;5049936;28;20041;-69
2023/01/18 11:34:36;;;;;;;7.53;3.92;;;3.60;99.90;;;;;;5050973;28;20048;-67
2023/01/18 11:37:03;;;;;;;10.55;3.65;;;3.70;99.90;;;;;;5050240;28;20036;-69
2023/01/18 11:39:34;;;;;;;7.68;3.35;;;3.80;99.90;;;;;;5051103;28;20045;-69
2023/01/18 11:42:12;;;;;;;9.10;4.70;;;3.80;99.90;;;;;;5049466;28;20529;-68
2023/01/18 11:44:53;;;;;;;7.95;4.13;;;3.80;99.90;;;;;;5053169;28;20052;-68
2023/01/18 11:47:23;;;;;;;8.40;3.08;;;3.80;99.90;;;;;;5054369;28;20040;-68
2023/01/18 11:49:58;;;;;;;8.23;3.50;;;3.70;99.90;;;;;;5052854;28;20037;-67
2023/01/18 11:52:33;;;;;;;7.13;3.50;;;3.80;99.90;;;;;;5055546;28;20041;-67
2023/01/18 11:55:04;;;;;;;6.93;3.38;;;3.80;99.90;;;;;;5054895;28;20056;-67
2023/01/18 11:57:30;;;;;;;6.70;3.20;;;3.80;99.90;;;;;;5053493;28;20072;-68
2023/01/18 11:59:56;;;;;;;6.90;3.65;;;3.90;99.90;;;;;;5054588;28;20490;-67
2023/01/18 12:02:44;;;;;;;6.85;3.22;;;4.00;99.90;;;;;;5053997;28;20060;-67
2023/01/18 12:05:27;;;;;;;10.57;3.70;;;4.00;99.90;;;;;;5054650;28;20045;-67
2023/01/18 12:08:17;;;;;;;6.43;3.40;;;4.10;99.90;;;;;;5053325;28;20044;-67
2023/01/18 12:11:25;;;;;;;8.27;3.20;;;4.10;99.90;;;;;;5052525;28;20045;-68
2023/01/18 12:14:11;;;;;;;8.13;3.58;;;4.20;99.90;;;;;;5020932;28;20502;-68
2023/01/18 12:16:55;;;;;;;8.55;3.85;;;4.20;99.90;;;;;;5053409;28;20091;-68
2023/01/18 12:19:35;;;;;;;8.25;3.47;;;4.30;99.90;;;;;;5053991;28;20076;-68
2023/01/18 12:22:15;;;;;;;7.90;3.53;;;4.40;99.90;;;;;;5054337;28;20044;-68
2023/01/18 12:24:59;;;;;;;10.00;3.97;;;4.40;99.90;;;;;;5052032;28;20115;-68
2023/01/18 12:27:52;;;;;;;8.23;3.80;;;4.50;99.90;;;;;;5053565;28;20037;-68
2023/01/18 12:30:32;;;;;;;7.15;3.45;;;4.50;99.90;;;;;;5054749;28;20387;-68
2023/01/18 12:33:03;;;;;;;7.95;3.95;;;4.40;99.90;;;;;;5035782;28;20127;-68
2023/01/18 12:35:50;;;;;;;8.70;3.90;;;4.40;99.90;;;;;;5053372;28;20053;-68
2023/01/18 12:38:26;;;;;;;9.30;4.00;;;4.30;99.90;;;;;;5052783;28;20040;-68
2023/01/18 12:41:17;;;;;;;8.13;3.70;;;4.20;99.90;;;;;;5054124;28;20052;-68
2023/01/18 12:44:07;;;;;;;8.90;4.05;;;4.20;99.90;;;;;;5052473;28;20083;-68
2023/01/18 12:46:54;;;;;;;7.80;3.33;;;4.10;99.90;;;;;;5053950;28;20044;-68
2023/01/18 12:49:21;;;;;;;6.57;3.45;;;4.10;99.90;;;;;;5054746;28;20045;-68
2023/01/18 12:51:51;;;;;;;6.90;3.72;;;4.10;99.90;;;;;;5052650;28;20045;-68
2023/01/18 12:54:44;;;;;;;8.90;3.65;;;4.00;99.90;;;;;;5052083;28;20080;-68
2023/01/18 12:57:12;;;;;;;6.45;3.03;;;4.00;99.90;;;;;;5054102;28;20077;-68
2023/01/18 12:59:56;;;;;;;7.45;3.20;;;4.00;99.90;;;;;;5052083;28;20068;-68
2023/01/18 13:02:33;;;;;;;8.75;3.50;;;3.90;99.90;;;;;;5053124;28;20033;-68
2023/01/18 13:05:22;;;;;;;6.55;2.50;;;3.90;99.90;;;;;;5053834;28;20045;-68
2023/01/18 13:07:59;;;;;;;6.82;2.85;;;4.00;99.90;;;;;;5051733;28;20087;-68
2023/01/18 13:10:27;;;;;;;7.65;3.30;;;4.00;99.90;;;;;;5053022;28;20052;-68
2023/01/18 13:12:54;;;;;;;4.18;1.90;;;4.00;99.90;;;;;;5051821;28;20397;-68
2023/01/18 13:15:47;;;;;;;9.68;3.40;;;4.00;99.90;;;;;;5053326;28;20195;-68
2023/01/18 13:18:24;;;;;;;7.95;3.67;;;4.10;99.90;;;;;;5068501;28;20123;-68
2023/01/18 13:21:04;;;;;;;7.43;3.70;;;4.10;99.90;;;;;;5039838;28;20053;-69
2023/01/18 13:23:52;;;;;;;10.25;3.78;;;4.10;99.90;;;;;;5050006;28;20045;-67
2023/01/18 13:26:39;;;;;;;8.55;2.83;;;4.20;99.90;;;;;;5050975;28;20418;-67
2023/01/18 13:29:28;;;;;;;5.85;2.80;;;4.20;99.90;;;;;;5051232;28;20132;-67
2023/01/18 13:31:55;;;;;;;4.85;2.30;;;4.20;99.90;;;;;;5051107;28;20041;-67
2023/01/18 13:34:35;;;;;;;6.57;2.05;;;4.20;99.90;;;;;;5050012;28;20053;-67
2023/01/18 13:37:05;;;;;;;12.77;4.40;;;4.20;99.90;;;;;;5041249;28;20033;-67
2023/01/18 13:39:32;;;;;;;9.07;3.83;;;4.20;99.90;;;;;;5041676;28;20045;-67
2023/01/18 13:41:58;;;;;;;10.82;3.53;;;4.30;99.90;;;;;;5033327;28;20040;-67
2023/01/18 13:44:35;;;;;;;6.15;2.80;;;4.20;99.90;;;;;;5049168;28;20128;-67
2023/01/18 13:47:01;;;;;;;6.95;3.05;;;4.20;99.90;;;;;;5032746;28;20088;-67